sensor_id;sensor_type;location;lat;lon;timestamp;pressure;altitude;pressure_sealevel;temperature;humidity
34124;BME280;13153;52.316;21.166;2023-01-08T00:02:09;100622.66;;;8.74;69.30
34124;BME280;13153;52.316;21.166;2023-01-08T00:04:35;100629.75;;;8.76;69.49
34124;BME280;13153;52.316;21.166;2023-01-08T00:07:01;100618.13;;;8.70;69.21
34124;BME280;13153;52.316;21.166;2023-01-08T00:09:27;100615.56;;;8.71;69.17
34124;BME280;13153;52.316;21.166;2023-01-08T00:11:52;100609.06;;;8.60;69.06
34124;BME280;13153;52.316;21.166;2023-01-08T00:14:18;100618.81;;;8.64;69.50
34124;BME280;13153;52.316;21.166;2023-01-08T00:16:44;100611.84;;;8.65;68.94
34124;BME280;13153;52.316;21.166;2023-01-08T00:19:11;100618.81;;;8.64;68.88
34124;BME280;13153;52.316;21.166;2023-01-08T00:21:38;100614.47;;;8.65;69.05
34124;BME280;13153;52.316;21.166;2023-01-08T00:24:04;100606.31;;;8.57;68.85
34124;BME280;13153;52.316;21.166;2023-01-08T00:26:30;100610.72;;;8.58;69.26
34124;BME280;13153;52.316;21.166;2023-01-08T00:28:56;100611.75;;;8.62;68.94
34124;BME280;13153;52.316;21.166;2023-01-08T00:31:22;100613.63;;;8.66;68.73
34124;BME280;13153;52.316;21.166;2023-01-08T00:33:48;100607.53;;;8.67;69.25
34124;BME280;13153;52.316;21.166;2023-01-08T00:36:18;100600.56;;;8.67;68.67
34124;BME280;13153;52.316;21.166;2023-01-08T00:38:45;100612.78;;;8.67;68.97
34124;BME280;13153;52.316;21.166;2023-01-08T00:41:14;100612.78;;;8.67;68.18
34124;BME280;13153;52.316;21.166;2023-01-08T00:43:40;100622.28;;;8.63;68.42
34124;BME280;13153;52.316;21.166;2023-01-08T00:46:07;100603.03;;;8.63;68.76
34124;BME280;13153;52.316;21.166;2023-01-08T00:48:33;100601.72;;;8.51;68.23
34124;BME280;13153;52.316;21.166;2023-01-08T00:51:05;100616.34;;;8.45;68.60
34124;BME280;13153;52.316;21.166;2023-01-08T00:53:31;100608.28;;;8.40;68.34
34124;BME280;13153;52.316;21.166;2023-01-08T00:56:06;100603.28;;;8.46;68.79
34124;BME280;13153;52.316;21.166;2023-01-08T00:58:33;100596.19;;;8.44;68.15
34124;BME280;13153;52.316;21.166;2023-01-08T01:00:59;100595.25;;;8.42;68.21
34124;BME280;13153;52.316;21.166;2023-01-08T01:03:25;100594.41;;;8.43;68.45
34124;BME280;13153;52.316;21.166;2023-01-08T01:06:03;100594.16;;;8.37;68.46
34124;BME280;13153;52.316;21.166;2023-01-08T01:08:29;100589.94;;;8.40;67.99
34124;BME280;13153;52.316;21.166;2023-01-08T01:10:55;100586.88;;;8.29;68.22
34124;BME280;13153;52.316;21.166;2023-01-08T01:13:21;100582.75;;;8.14;68.40
34124;BME280;13153;52.316;21.166;2023-01-08T01:15:59;100577.75;;;8.20;68.38
34124;BME280;13153;52.316;21.166;2023-01-08T01:18:26;100578.75;;;8.23;68.38
34124;BME280;13153;52.316;21.166;2023-01-08T01:20:52;100587.97;;;8.35;68.70
34124;BME280;13153;52.316;21.166;2023-01-08T01:23:18;100572.03;;;8.30;68.32
34124;BME280;13153;52.316;21.166;2023-01-08T01:25:44;100575.38;;;8.26;67.85
34124;BME280;13153;52.316;21.166;2023-01-08T01:28:09;100572.38;;;8.17;68.79
34124;BME280;13153;52.316;21.166;2023-01-08T01:30:35;100566.72;;;8.28;68.11
34124;BME280;13153;52.316;21.166;2023-01-08T01:33:01;100576.06;;;8.22;67.53
34124;BME280;13153;52.316;21.166;2023-01-08T01:35:27;100563.75;;;8.19;68.39
34124;BME280;13153;52.316;21.166;2023-01-08T01:37:53;100566.44;;;8.21;67.92
34124;BME280;13153;52.316;21.166;2023-01-08T01:40:18;100569.94;;;8.21;67.93
34124;BME280;13153;52.316;21.166;2023-01-08T01:42:44;100569.03;;;8.21;67.84
34124;BME280;13153;52.316;21.166;2023-01-08T01:45:25;100578.19;;;8.08;68.36
34124;BME280;13153;52.316;21.166;2023-01-08T01:48:03;100562.50;;;8.10;68.26
34124;BME280;13153;52.316;21.166;2023-01-08T01:50:39;100557.31;;;8.11;68.54
34124;BME280;13153;52.316;21.166;2023-01-08T01:53:13;100553.41;;;8.00;68.08
34124;BME280;13153;52.316;21.166;2023-01-08T01:55:43;100554.19;;;7.98;68.23
34124;BME280;13153;52.316;21.166;2023-01-08T01:58:25;100551.38;;;7.93;68.57
34124;BME280;13153;52.316;21.166;2023-01-08T02:00:55;100537.50;;;7.95;68.58
34124;BME280;13153;52.316;21.166;2023-01-08T02:03:25;100535.19;;;8.03;68.52
34124;BME280;13153;52.316;21.166;2023-01-08T02:06:17;100541.78;;;7.93;69.00
34124;BME280;13153;52.316;21.166;2023-01-08T02:09:13;100542.50;;;7.89;69.16
34124;BME280;13153;52.316;21.166;2023-01-08T02:11:50;100528.03;;;7.99;68.95
34124;BME280;13153;52.316;21.166;2023-01-08T02:17:38;100525.53;;;8.02;68.63
34124;BME280;13153;52.316;21.166;2023-01-08T02:20:26;100519.59;;;8.06;68.98
34124;BME280;13153;52.316;21.166;2023-01-08T02:29:33;100518.50;;;8.01;67.90
34124;BME280;13153;52.316;21.166;2023-01-08T02:32:00;100524.47;;;7.97;68.23
34124;BME280;13153;52.316;21.166;2023-01-08T02:34:26;100526.00;;;7.92;67.59
34124;BME280;13153;52.316;21.166;2023-01-08T02:36:55;100517.03;;;7.85;67.59
34124;BME280;13153;52.316;21.166;2023-01-08T02:51:07;100523.88;;;7.61;66.66
34124;BME280;13153;52.316;21.166;2023-01-08T02:53:42;100516.47;;;7.49;66.72
34124;BME280;13153;52.316;21.166;2023-01-08T02:56:15;100515.31;;;7.43;66.91
34124;BME280;13153;52.316;21.166;2023-01-08T02:58:44;100515.31;;;7.43;66.37
34124;BME280;13153;52.316;21.166;2023-01-08T03:01:14;100508.03;;;7.36;66.36
34124;BME280;13153;52.316;21.166;2023-01-08T03:03:46;100508.81;;;7.33;66.39
34124;BME280;13153;52.316;21.166;2023-01-08T03:06:17;100497.75;;;7.19;66.60
34124;BME280;13153;52.316;21.166;2023-01-08T03:08:51;100505.69;;;7.21;66.72
34124;BME280;13153;52.316;21.166;2023-01-08T03:11:21;100498.09;;;7.27;66.81
34124;BME280;13153;52.316;21.166;2023-01-08T03:14:00;100490.88;;;7.21;66.47
34124;BME280;13153;52.316;21.166;2023-01-08T03:16:41;100493.09;;;7.12;66.19
34124;BME280;13153;52.316;21.166;2023-01-08T03:19:22;100502.47;;;7.07;66.66
34124;BME280;13153;52.316;21.166;2023-01-08T03:21:52;100492.91;;;7.08;66.40
34124;BME280;13153;52.316;21.166;2023-01-08T03:24:23;100491.19;;;7.08;66.30
34124;BME280;13153;52.316;21.166;2023-01-08T03:26:57;100493.75;;;7.07;66.36
34124;BME280;13153;52.316;21.166;2023-01-08T03:29:24;100492.84;;;7.06;66.33
34124;BME280;13153;52.316;21.166;2023-01-08T03:31:57;100487.47;;;7.03;66.55
34124;BME280;13153;52.316;21.166;2023-01-08T03:34:28;100492.84;;;7.06;66.02
34124;BME280;13153;52.316;21.166;2023-01-08T03:36:59;100491.63;;;6.98;66.13
34124;BME280;13153;52.316;21.166;2023-01-08T03:40:00;100491.44;;;6.93;66.34
34124;BME280;13153;52.316;21.166;2023-01-08T03:42:31;100494.72;;;6.88;66.40
34124;BME280;13153;52.316;21.166;2023-01-08T03:44:58;100482.25;;;6.82;65.91
34124;BME280;13153;52.316;21.166;2023-01-08T03:47:28;100479.59;;;6.81;66.49
34124;BME280;13153;52.316;21.166;2023-01-08T03:49:59;100490.94;;;6.81;66.44
34124;BME280;13153;52.316;21.166;2023-01-08T03:52:31;100491.81;;;6.82;66.51
34124;BME280;13153;52.316;21.166;2023-01-08T03:54:58;100490.81;;;6.78;66.45
34124;BME280;13153;52.316;21.166;2023-01-08T03:57:24;100491.44;;;6.73;66.40
34124;BME280;13153;52.316;21.166;2023-01-08T03:59:49;100492.59;;;6.79;66.45
34124;BME280;13153;52.316;21.166;2023-01-08T04:02:16;100500.63;;;6.84;66.31
34124;BME280;13153;52.316;21.166;2023-01-08T04:04:41;100490.81;;;6.78;65.76
34124;BME280;13153;52.316;21.166;2023-01-08T04:07:10;100485.63;;;6.80;66.16
34124;BME280;13153;52.316;21.166;2023-01-08T04:09:36;100487.63;;;6.85;66.18
34124;BME280;13153;52.316;21.166;2023-01-08T04:12:02;100495.72;;;6.91;65.77
34124;BME280;13153;52.316;21.166;2023-01-08T04:14:28;100494.19;;;6.96;65.12
34124;BME280;13153;52.316;21.166;2023-01-08T04:16:54;100495.53;;;6.87;65.89
34124;BME280;13153;52.316;21.166;2023-01-08T04:19:19;100496.72;;;6.95;65.69
34124;BME280;13153;52.316;21.166;2023-01-08T04:21:45;100502.91;;;6.97;65.22
34124;BME280;13153;52.316;21.166;2023-01-08T04:24:14;100492.44;;;6.97;65.37
34124;BME280;13153;52.316;21.166;2023-01-08T04:26:39;100487.97;;;6.93;65.43
34124;BME280;13153;52.316;21.166;2023-01-08T04:29:05;100479.56;;;7.02;65.20
34124;BME280;13153;52.316;21.166;2023-01-08T04:31:31;100480.28;;;6.97;65.41
34124;BME280;13153;52.316;21.166;2023-01-08T04:33:57;100484.03;;;7.04;65.92
34124;BME280;13153;52.316;21.166;2023-01-08T04:36:23;100491.94;;;7.06;65.35
34124;BME280;13153;52.316;21.166;2023-01-08T04:38:49;100468.97;;;6.99;66.08
34124;BME280;13153;52.316;21.166;2023-01-08T04:41:14;100468.22;;;7.01;66.37
34124;BME280;13153;52.316;21.166;2023-01-08T04:43:43;100465.66;;;7.03;66.81
34124;BME280;13153;52.316;21.166;2023-01-08T04:46:09;100463.03;;;7.03;66.02
34124;BME280;13153;52.316;21.166;2023-01-08T04:48:35;100461.88;;;6.96;66.45
34124;BME280;13153;52.316;21.166;2023-01-08T04:51:03;100475.16;;;7.01;66.60
34124;BME280;13153;52.316;21.166;2023-01-08T04:53:33;100464.19;;;7.09;66.31
34124;BME280;13153;52.316;21.166;2023-01-08T04:56:08;100469.38;;;7.08;66.07
34124;BME280;13153;52.316;21.166;2023-01-08T04:58:36;100470.78;;;7.20;65.93
34124;BME280;13153;52.316;21.166;2023-01-08T05:01:17;100469.09;;;7.22;66.22
34124;BME280;13153;52.316;21.166;2023-01-08T05:03:44;100469.16;;;7.24;66.02
34124;BME280;13153;52.316;21.166;2023-01-08T05:06:09;100480.97;;;7.14;65.91
34124;BME280;13153;52.316;21.166;2023-01-08T05:08:35;100481.75;;;7.12;66.38
34124;BME280;13153;52.316;21.166;2023-01-08T05:11:02;100491.25;;;7.10;66.14
34124;BME280;13153;52.316;21.166;2023-01-08T05:13:29;100482.19;;;7.02;66.60
34124;BME280;13153;52.316;21.166;2023-01-08T05:15:59;100480.03;;;7.12;66.45
34124;BME280;13153;52.316;21.166;2023-01-08T05:18:27;100462.53;;;7.11;66.40
34124;BME280;13153;52.316;21.166;2023-01-08T05:20:53;100461.91;;;7.17;66.21
34124;BME280;13153;52.316;21.166;2023-01-08T05:23:19;100463.09;;;7.25;66.11
34124;BME280;13153;52.316;21.166;2023-01-08T05:25:45;100473.69;;;7.07;66.72
34124;BME280;13153;52.316;21.166;2023-01-08T05:28:10;100461.97;;;7.18;66.32
34124;BME280;13153;52.316;21.166;2023-01-08T05:30:36;100456.72;;;7.18;66.43
34124;BME280;13153;52.316;21.166;2023-01-08T05:33:02;100457.09;;;7.27;66.53
34124;BME280;13153;52.316;21.166;2023-01-08T05:35:28;100458.00;;;7.28;65.72
34124;BME280;13153;52.316;21.166;2023-01-08T05:37:54;100453.41;;;7.22;66.22
34124;BME280;13153;52.316;21.166;2023-01-08T05:40:19;100454.19;;;7.20;65.95
34124;BME280;13153;52.316;21.166;2023-01-08T05:42:45;100453.84;;;7.12;65.13
34124;BME280;13153;52.316;21.166;2023-01-08T05:45:11;100453.91;;;7.14;65.21
34124;BME280;13153;52.316;21.166;2023-01-08T05:47:37;100456.03;;;7.22;65.01
34124;BME280;13153;52.316;21.166;2023-01-08T05:50:03;100466.38;;;7.19;64.84
34124;BME280;13153;52.316;21.166;2023-01-08T05:52:29;100480.28;;;6.97;65.41
34124;BME280;13153;52.316;21.166;2023-01-08T05:54:54;100450.44;;;6.92;66.33
34124;BME280;13153;52.316;21.166;2023-01-08T05:57:20;100460.50;;;7.04;65.59
34124;BME280;13153;52.316;21.166;2023-01-08T05:59:46;100460.31;;;7.00;66.44
34124;BME280;13153;52.316;21.166;2023-01-08T06:02:12;100455.25;;;7.04;66.43
34124;BME280;13153;52.316;21.166;2023-01-08T06:04:38;100457.50;;;6.95;66.16
34124;BME280;13153;52.316;21.166;2023-01-08T06:07:03;100469.66;;;6.93;66.17
34124;BME280;13153;52.316;21.166;2023-01-08T06:09:29;100451.97;;;6.87;66.45
34124;BME280;13153;52.316;21.166;2023-01-08T06:11:55;100445.66;;;6.82;66.62
34124;BME280;13153;52.316;21.166;2023-01-08T06:14:23;100438.97;;;6.89;66.64
34124;BME280;13153;52.316;21.166;2023-01-08T06:16:48;100449.53;;;6.92;66.63
34124;BME280;13153;52.316;21.166;2023-01-08T06:19:14;100456.94;;;6.81;66.64
34124;BME280;13153;52.316;21.166;2023-01-08T06:21:40;100444.47;;;6.96;66.12
34124;BME280;13153;52.316;21.166;2023-01-08T06:24:06;100452.53;;;7.01;65.68
34124;BME280;13153;52.316;21.166;2023-01-08T06:26:32;100442.31;;;7.07;65.45
34124;BME280;13153;52.316;21.166;2023-01-08T06:28:58;100454.63;;;7.10;65.97
34124;BME280;13153;52.316;21.166;2023-01-08T06:31:23;100456.34;;;7.09;66.20
34124;BME280;13153;52.316;21.166;2023-01-08T06:33:49;100460.44;;;7.03;65.20
34124;BME280;13153;52.316;21.166;2023-01-08T06:36:15;100433.84;;;6.92;65.44
34124;BME280;13153;52.316;21.166;2023-01-08T06:38:41;100440.53;;;7.06;65.04
34124;BME280;13153;52.316;21.166;2023-01-08T06:41:09;100440.28;;;7.00;65.22
34124;BME280;13153;52.316;21.166;2023-01-08T06:43:37;100439.63;;;7.06;64.73
34124;BME280;13153;52.316;21.166;2023-01-08T06:46:08;100438.13;;;6.90;64.46
34124;BME280;13153;52.316;21.166;2023-01-08T06:48:35;100424.59;;;6.79;64.75
34124;BME280;13153;52.316;21.166;2023-01-08T06:51:02;100443.41;;;6.71;64.82
34124;BME280;13153;52.316;21.166;2023-01-08T06:53:29;100434.81;;;6.73;64.76
34124;BME280;13153;52.316;21.166;2023-01-08T06:55:55;100427.00;;;6.54;64.69
34124;BME280;13153;52.316;21.166;2023-01-08T06:58:25;100424.78;;;6.84;64.68
34124;BME280;13153;52.316;21.166;2023-01-08T07:00:51;100419.97;;;6.94;63.92
34124;BME280;13153;52.316;21.166;2023-01-08T07:03:17;100421.41;;;6.86;63.94
34124;BME280;13153;52.316;21.166;2023-01-08T07:05:43;100411.19;;;6.72;63.62
34124;BME280;13153;52.316;21.166;2023-01-08T07:08:17;100424.59;;;6.79;64.06
34124;BME280;13153;52.316;21.166;2023-01-08T07:10:44;100413.50;;;6.64;63.95
34124;BME280;13153;52.316;21.166;2023-01-08T07:13:10;100406.09;;;6.75;63.68
34124;BME280;13153;52.316;21.166;2023-01-08T07:15:38;100413.25;;;6.79;63.79
34124;BME280;13153;52.316;21.166;2023-01-08T07:18:06;100420.91;;;6.74;63.50
34124;BME280;13153;52.316;21.166;2023-01-08T07:20:33;100402.06;;;6.62;64.07
34124;BME280;13153;52.316;21.166;2023-01-08T07:23:08;100415.41;;;6.68;63.89
34124;BME280;13153;52.316;21.166;2023-01-08T07:25:34;100404.50;;;6.78;63.55
34124;BME280;13153;52.316;21.166;2023-01-08T07:28:00;100413.13;;;6.76;63.66
34124;BME280;13153;52.316;21.166;2023-01-08T07:30:27;100398.31;;;6.76;63.49
34124;BME280;13153;52.316;21.166;2023-01-08T07:33:00;100400.94;;;6.76;63.63
34124;BME280;13153;52.316;21.166;2023-01-08T07:35:26;100399.34;;;6.80;63.55
34124;BME280;13153;52.316;21.166;2023-01-08T07:37:52;100402.84;;;6.80;63.74
34124;BME280;13153;52.316;21.166;2023-01-08T07:40:18;100392.84;;;6.91;63.25
34124;BME280;13153;52.316;21.166;2023-01-08T07:42:43;100394.19;;;6.81;63.39
34124;BME280;13153;52.316;21.166;2023-01-08T07:45:10;100384.28;;;6.74;63.74
34124;BME280;13153;52.316;21.166;2023-01-08T07:47:36;100389.53;;;6.74;63.54
34124;BME280;13153;52.316;21.166;2023-01-08T07:50:02;100372.13;;;6.75;63.79
34124;BME280;13153;52.316;21.166;2023-01-08T07:52:28;100384.66;;;6.62;64.01
34124;BME280;13153;52.316;21.166;2023-01-08T07:54:54;100384.94;;;6.69;64.03
34124;BME280;13153;52.316;21.166;2023-01-08T07:57:19;100388.75;;;6.77;63.73
34124;BME280;13153;52.316;21.166;2023-01-08T07:59:45;100363.44;;;6.76;63.08
34124;BME280;13153;52.316;21.166;2023-01-08T08:02:11;100357.25;;;6.74;63.69
34124;BME280;13153;52.316;21.166;2023-01-08T08:04:37;100364.72;;;6.85;63.53
34124;BME280;13153;52.316;21.166;2023-01-08T08:07:03;100352.88;;;6.95;63.78
34124;BME280;13153;52.316;21.166;2023-01-08T08:09:29;100370.66;;;6.81;63.28
34124;BME280;13153;52.316;21.166;2023-01-08T08:11:54;100359.28;;;6.81;63.84
34124;BME280;13153;52.316;21.166;2023-01-08T08:14:20;100361.31;;;6.88;63.68
34124;BME280;13153;52.316;21.166;2023-01-08T08:16:46;100353.66;;;6.92;63.60
34124;BME280;13153;52.316;21.166;2023-01-08T08:19:12;100362.34;;;6.91;63.47
34124;BME280;13153;52.316;21.166;2023-01-08T08:21:38;100361.44;;;6.91;63.64
34124;BME280;13153;52.316;21.166;2023-01-08T08:24:04;100367.66;;;6.94;63.82
34124;BME280;13153;52.316;21.166;2023-01-08T08:26:30;100377.03;;;6.88;63.83
34124;BME280;13153;52.316;21.166;2023-01-08T08:28:56;100371.44;;;7.01;63.66
34124;BME280;13153;52.316;21.166;2023-01-08T08:31:22;100374.28;;;7.07;63.95
34124;BME280;13153;52.316;21.166;2023-01-08T08:33:47;100374.41;;;7.10;63.76
34124;BME280;13153;52.316;21.166;2023-01-08T08:36:13;100364.78;;;6.87;64.39
34124;BME280;13153;52.316;21.166;2023-01-08T08:38:39;100347.63;;;6.95;64.52
34124;BME280;13153;52.316;21.166;2023-01-08T08:41:05;100356.38;;;6.95;64.50
34124;BME280;13153;52.316;21.166;2023-01-08T08:43:31;100358.41;;;7.03;64.36
34124;BME280;13153;52.316;21.166;2023-01-08T08:45:57;100356.50;;;6.99;64.74
34124;BME280;13153;52.316;21.166;2023-01-08T08:48:23;100360.63;;;7.14;63.95
34124;BME280;13153;52.316;21.166;2023-01-08T08:50:49;100342.53;;;6.98;64.33
34124;BME280;13153;52.316;21.166;2023-01-08T08:53:15;100341.00;;;7.03;63.73
34124;BME280;13153;52.316;21.166;2023-01-08T08:55:41;100343.78;;;7.08;64.00
34124;BME280;13153;52.316;21.166;2023-01-08T08:58:10;100345.88;;;7.16;63.62
34124;BME280;13153;52.316;21.166;2023-01-08T09:00:39;100327.88;;;7.24;62.97
34124;BME280;13153;52.316;21.166;2023-01-08T09:03:05;100342.09;;;7.31;62.52
34124;BME280;13153;52.316;21.166;2023-01-08T09:05:35;100321.56;;;7.19;62.89
34124;BME280;13153;52.316;21.166;2023-01-08T09:08:01;100333.16;;;7.25;62.55
34124;BME280;13153;52.316;21.166;2023-01-08T09:10:27;100319.00;;;7.20;62.07
34124;BME280;13153;52.316;21.166;2023-01-08T09:12:53;100323.69;;;7.07;62.63
34124;BME280;13153;52.316;21.166;2023-01-08T09:15:21;100316.38;;;6.98;62.53
34124;BME280;13153;52.316;21.166;2023-01-08T09:17:53;100311.63;;;6.88;63.65
34124;BME280;13153;52.316;21.166;2023-01-08T09:20:20;100323.63;;;7.05;62.79
34124;BME280;13153;52.316;21.166;2023-01-08T09:22:46;100324.75;;;7.12;63.35
34124;BME280;13153;52.316;21.166;2023-01-08T09:25:12;100324.13;;;7.17;63.26
34124;BME280;13153;52.316;21.166;2023-01-08T09:27:38;100313.88;;;7.23;62.71
34124;BME280;13153;52.316;21.166;2023-01-08T09:30:05;100318.34;;;7.26;62.59
34124;BME280;13153;52.316;21.166;2023-01-08T09:32:31;100322.22;;;7.13;62.90
34124;BME280;13153;52.316;21.166;2023-01-08T09:34:57;100321.25;;;7.11;62.55
34124;BME280;13153;52.316;21.166;2023-01-08T09:37:23;100309.06;;;7.12;62.96
34124;BME280;13153;52.316;21.166;2023-01-08T09:39:49;100308.66;;;7.23;63.13
34124;BME280;13153;52.316;21.166;2023-01-08T09:42:21;100306.81;;;7.21;62.81
34124;BME280;13153;52.316;21.166;2023-01-08T09:44:53;100302.09;;;7.35;62.52
34124;BME280;13153;52.316;21.166;2023-01-08T09:47:35;100316.38;;;7.43;62.80
34124;BME280;13153;52.316;21.166;2023-01-08T09:50:08;100301.69;;;7.46;62.75
34124;BME280;13153;52.316;21.166;2023-01-08T09:52:37;100295.97;;;7.58;62.39
34124;BME280;13153;52.316;21.166;2023-01-08T09:55:12;100297.25;;;7.69;62.53
34124;BME280;13153;52.316;21.166;2023-01-08T09:57:39;100287.78;;;7.73;61.54
34124;BME280;13153;52.316;21.166;2023-01-08T10:00:18;100270.97;;;7.66;61.75
34124;BME280;13153;52.316;21.166;2023-01-08T10:02:46;100272.13;;;7.74;62.23
34124;BME280;13153;52.316;21.166;2023-01-08T10:05:17;100278.31;;;7.76;62.13
34124;BME280;13153;52.316;21.166;2023-01-08T10:07:44;100286.19;;;7.76;61.92
34124;BME280;13153;52.316;21.166;2023-01-08T10:10:25;100286.56;;;7.87;61.08
34124;BME280;13153;52.316;21.166;2023-01-08T10:12:53;100285.69;;;7.86;61.36
34124;BME280;13153;52.316;21.166;2023-01-08T10:15:21;100277.88;;;7.88;61.46
34124;BME280;13153;52.316;21.166;2023-01-08T10:18:08;100279.59;;;7.87;61.28
34124;BME280;13153;52.316;21.166;2023-01-08T10:20:35;100283.72;;;7.81;60.76
34124;BME280;13153;52.316;21.166;2023-01-08T10:23:16;100274.25;;;7.84;60.77
34124;BME280;13153;52.316;21.166;2023-01-08T10:25:55;100272.53;;;7.85;60.16
34124;BME280;13153;52.316;21.166;2023-01-08T10:28:33;100267.97;;;7.79;60.70
34124;BME280;13153;52.316;21.166;2023-01-08T10:31:15;100274.41;;;7.89;60.56
34124;BME280;13153;52.316;21.166;2023-01-08T10:33:45;100272.47;;;7.83;60.12
34124;BME280;13153;52.316;21.166;2023-01-08T10:36:17;100253.28;;;7.84;60.41
34124;BME280;13153;52.316;21.166;2023-01-08T10:39:00;100250.75;;;7.62;60.07
34124;BME280;13153;52.316;21.166;2023-01-08T10:41:27;100268.63;;;7.74;59.93
34124;BME280;13153;52.316;21.166;2023-01-08T10:44:05;100251.56;;;7.85;59.63
34124;BME280;13153;52.316;21.166;2023-01-08T10:46:45;100243.16;;;7.70;59.40
34124;BME280;13153;52.316;21.166;2023-01-08T10:49:17;100249.69;;;7.57;59.71
34124;BME280;13153;52.316;21.166;2023-01-08T10:51:53;100232.78;;;7.47;59.85
34124;BME280;13153;52.316;21.166;2023-01-08T10:54:40;100214.66;;;7.53;60.47
34124;BME280;13153;52.316;21.166;2023-01-08T10:57:28;100228.13;;;7.64;60.42
34124;BME280;13153;52.316;21.166;2023-01-08T10:59:55;100203.22;;;7.50;60.07
34124;BME280;13153;52.316;21.166;2023-01-08T11:02:41;100202.16;;;7.45;60.48
34124;BME280;13153;52.316;21.166;2023-01-08T11:05:08;100222.25;;;7.46;60.06
34124;BME280;13153;52.316;21.166;2023-01-08T11:07:36;100199.94;;;7.57;59.96
34124;BME280;13153;52.316;21.166;2023-01-08T11:10:05;100208.19;;;7.68;59.66
34124;BME280;13153;52.316;21.166;2023-01-08T11:12:39;100201.28;;;7.70;59.15
34124;BME280;13153;52.316;21.166;2023-01-08T11:17:44;100191.78;;;7.73;59.42
34124;BME280;13153;52.316;21.166;2023-01-08T11:20:23;100187.75;;;7.83;59.29
34124;BME280;13153;52.316;21.166;2023-01-08T11:23:19;100186.81;;;7.81;58.66
34124;BME280;13153;52.316;21.166;2023-01-08T11:26:12;100183.53;;;7.86;58.96
34124;BME280;13153;52.316;21.166;2023-01-08T11:31:35;100187.75;;;7.57;59.51
34124;BME280;13153;52.316;21.166;2023-01-08T11:34:31;100181.88;;;7.65;58.81
34124;BME280;13153;52.316;21.166;2023-01-08T11:37:11;100184.94;;;7.77;58.96
34124;BME280;13153;52.316;21.166;2023-01-08T11:39:38;100193.72;;;7.53;59.47
34124;BME280;13153;52.316;21.166;2023-01-08T11:57:11;100172.59;;;7.47;59.84
34124;BME280;13153;52.316;21.166;2023-01-08T12:02:44;100167.91;;;7.39;60.57
34124;BME280;13153;52.316;21.166;2023-01-08T12:11:30;100152.63;;;7.51;60.03
34124;BME280;13153;52.316;21.166;2023-01-08T12:14:18;100157.00;;;7.26;60.27
34124;BME280;13153;52.316;21.166;2023-01-08T12:17:11;100165.00;;;7.31;59.99
34124;BME280;13153;52.316;21.166;2023-01-08T12:22:45;100160.50;;;7.03;60.42
34124;BME280;13153;52.316;21.166;2023-01-08T12:31:36;100165.84;;;7.06;60.74
34124;BME280;13153;52.316;21.166;2023-01-08T12:34:15;100161.00;;;7.17;61.19
34124;BME280;13153;52.316;21.166;2023-01-08T12:36:49;100137.63;;;7.21;60.43
34124;BME280;13153;52.316;21.166;2023-01-08T12:39:27;100144.88;;;7.05;60.50
34124;BME280;13153;52.316;21.166;2023-01-08T12:42:08;100142.53;;;7.12;61.28
34124;BME280;13153;52.316;21.166;2023-01-08T12:44:36;100151.25;;;7.13;61.00
34124;BME280;13153;52.316;21.166;2023-01-08T12:47:06;100140.53;;;7.29;60.79
34124;BME280;13153;52.316;21.166;2023-01-08T12:49:55;100157.59;;;7.19;60.00
34124;BME280;13153;52.316;21.166;2023-01-08T12:55:34;100147.16;;;7.19;60.56
34124;BME280;13153;52.316;21.166;2023-01-08T13:01:21;100149.97;;;7.02;60.81
34124;BME280;13153;52.316;21.166;2023-01-08T13:03:52;100144.63;;;7.22;60.63
34124;BME280;13153;52.316;21.166;2023-01-08T13:06:20;100144.88;;;7.28;60.42
34124;BME280;13153;52.316;21.166;2023-01-08T13:08:55;100135.06;;;7.23;60.36
34124;BME280;13153;52.316;21.166;2023-01-08T13:11:33;100138.56;;;7.23;60.79
34124;BME280;13153;52.316;21.166;2023-01-08T13:14:05;100140.75;;;7.35;60.74
34124;BME280;13153;52.316;21.166;2023-01-08T13:16:38;100150.75;;;7.23;60.61
34124;BME280;13153;52.316;21.166;2023-01-08T13:19:22;100149.25;;;7.06;60.69
34124;BME280;13153;52.316;21.166;2023-01-08T13:21:57;100143.41;;;7.13;60.64
34124;BME280;13153;52.316;21.166;2023-01-08T13:24:34;100155.16;;;7.24;61.23
34124;BME280;13153;52.316;21.166;2023-01-08T13:27:26;100146.25;;;7.19;60.70
34124;BME280;13153;52.316;21.166;2023-01-08T13:29:54;100146.47;;;7.25;60.39
34124;BME280;13153;52.316;21.166;2023-01-08T13:32:45;100131.66;;;7.25;60.21
34124;BME280;13153;52.316;21.166;2023-01-08T13:37:46;100125.94;;;7.12;60.21
34124;BME280;13153;52.316;21.166;2023-01-08T13:40:35;100130.56;;;6.95;61.28
34124;BME280;13153;52.316;21.166;2023-01-08T13:43:05;100121.88;;;6.96;61.51
34124;BME280;13153;52.316;21.166;2023-01-08T13:45:32;100132.44;;;6.99;61.34
34124;BME280;13153;52.316;21.166;2023-01-08T13:47:59;100130.59;;;6.96;61.61
34124;BME280;13153;52.316;21.166;2023-01-08T13:50:26;100142.25;;;6.81;61.50
34124;BME280;13153;52.316;21.166;2023-01-08T13:53:04;100136.47;;;6.89;61.31
34124;BME280;13153;52.316;21.166;2023-01-08T13:55:39;100140.41;;;6.78;61.49
34124;BME280;13153;52.316;21.166;2023-01-08T13:58:15;100123.66;;;6.73;62.27
34124;BME280;13153;52.316;21.166;2023-01-08T14:03:34;100135.31;;;6.81;61.85
34124;BME280;13153;52.316;21.166;2023-01-08T14:06:19;100124.63;;;6.75;62.33
34124;BME280;13153;52.316;21.166;2023-01-08T14:08:54;100124.25;;;6.66;62.59
34124;BME280;13153;52.316;21.166;2023-01-08T14:11:39;100123.22;;;6.85;62.18
34124;BME280;13153;52.316;21.166;2023-01-08T14:14:13;100129.50;;;6.66;62.41
34124;BME280;13153;52.316;21.166;2023-01-08T14:16:40;100130.72;;;6.76;62.79
34124;BME280;13153;52.316;21.166;2023-01-08T14:19:07;100120.66;;;6.62;62.68